Notice: Undefined index: language in D:\xampp\htdocs\vam\index.php on line 25
Open Air Virtual

 METAR AND TAF INFORMATION
METAR FOR EGDR
ADDS - METARS form results

(1246 UTC 20 August 2019)
Data provider http://aviationweather.gov/metar/data/
 
METAR text: EGDR 201222Z 23010KT 9999 FEW028 BKN050 17/12 Q1026 NOSIG RMK BLU BLU
Conditions at: EGDR (CULDROSE (NAVY) , GB) observed 1222 UTC 20 August 2019
Temperature: 17.0°C (63°F)
Dewpoint: 12.0°C (54°F) [RH = 72%]
Pressure (altimeter): 30.30 inches Hg (1026.0 mb)
Winds: from the SW (230 degrees) at 12 MPH (10 knots; 5.1 m/s)
Visibility: 6 or more miles (10+ km)
Ceiling: 5000 feet AGL
Clouds: few clouds at 2800 feet AGL
broken clouds at 5000 feet AGL
Weather: no significant weather observed at this time

METAR text: EGDR 201150Z 23010KT 9999 FEW028 SCT050 17/11 Q1026 NOSIG RMK BLU BLU
Conditions at: EGDR (CULDROSE (NAVY) , GB) observed 1150 UTC 20 August 2019
Temperature: 17.0°C (63°F)
Dewpoint: 11.0°C (52°F) [RH = 68%]
Pressure (altimeter): 30.30 inches Hg (1026.0 mb)
Winds: from the SW (230 degrees) at 12 MPH (10 knots; 5.1 m/s)
Visibility: 6 or more miles (10+ km)
Ceiling: at least 12,000 feet AGL
Clouds: few clouds at 2800 feet AGL
scattered clouds at 5000 feet AGL
Weather: no significant weather observed at this time

Forecast for: EGDR (CULDROSE (NAVY) , GB)
Text: TAF EGDR 201030Z 2012/2021 22010KT 9999 FEW028
Forecast period: 1200 to 2100 UTC 20 August 2019
Forecast type: FROM: standard forecast or significant change
Winds: from the SW (220 degrees) at 12 MPH (10 knots; 5.1 m/s)
Visibility: 6 or more miles 10+ km)
Ceiling: at least 12,000 feet AGL
Clouds: few clouds at 2800 feet AGL
Weather: no significant weather forecast for this period

 AIRPORT MAP

 RUNWAY INFORMATION
Runway 07 Runway length 3372 ft Runway width 151 ft
Runway elevation 251 ft Runway displaced threshold 0 ft Runway heading 63
Runway 25 Runway length 3372 ft Runway width 151 ft
Runway elevation 264 ft Runway displaced threshold 0 ft Runway heading 243
Runway 12 Runway length 6006 ft Runway width 151 ft
Runway elevation 258 ft Runway displaced threshold 0 ft Runway heading 113
Runway 30 Runway length 6006 ft Runway width 151 ft
Runway elevation 267 ft Runway displaced threshold 0 ft Runway heading 293
Runway 18 Runway length 3448 ft Runway width 151 ft
Runway elevation 261 ft Runway displaced threshold 0 ft Runway heading 179
Runway 36 Runway length 3448 ft Runway width 151 ft
Runway elevation 253 ft Runway displaced threshold 0 ft Runway heading 359

 AIRPORT FREQUENCIES
Type APP Name APP Frequency 134.05 MHZ
Type ATIS Name ATIS Frequency 23.185 MHZ
Type GND Name GND Frequency 122.1 MHZ
Type OPS Name OPS Frequency 572.5 MHZ
Type TWR Name TWR Frequency 122.1 MHZ

 AIRPORT NEAR NAVIGATION AIDS



Powered by Virtual Airlines Manager [v2.6.2]